Sumter, SC

7:14 PM EDT on March 23, 2017 (GMT -0400)
Sumter Municipal

Weather History for KSMS - October, 2012

Change the Weather History Date:

Sunday, October 28, 2012

  Actual Average Record
Temperature  
Mean Temperature 64 °F -  
Max Temperature 71 °F 73 °F 86 °F (2014)
Min Temperature 57 °F 48 °F 46 °F (2013)
Degree Days  
Heating Degree Days 1    
Growing Degree Days 14 (Base 50)    
Moisture  
Dew Point 50 °F    
Average Humidity 63    
Maximum Humidity 77    
Minimum Humidity 46    
Precipitation  
Precipitation 0.00 in - - ()
Sea Level Pressure  
Sea Level Pressure 29.64 in    
Wind  
Wind Speed 10 mph (North)    
Max Wind Speed 15 mph    
Max Gust Speed 24 mph    
Visibility 10 miles    
Events      
Averages and records for this station are not official NWS values.
T = Trace of Precipitation, MM = Missing Value Source: NWS Daily Summary

Daily Weather History Graph

Daily Weather History Graph

Search for Another Location

Airport or City:

Trip Planner

Search our weather history database for the weather conditions in past years. The results will help you decide how hot, cold, wet, or windy it might be!

Date:

Astronomy

Oct. 28, 2012 Rise Set
Actual Time 7:37 AM EDT 6:32 PM EDT
Civil Twilight 7:12 AM EDT 6:57 PM EDT
Nautical Twilight 6:42 AM EDT 7:27 PM EDT
Astronomical Twilight 6:13 AM EDT 7:56 PM EDT
Moon 5:48 PM EDT (10/28) 6:30 AM EDT (10/28)
Length of Visible Light 11h 45m
Length of Day
10h 54m
Waxing Gibbous, 99% of the Moon is Illuminated
Oct 28
Waxing Gibbous
Oct 29
Full
Nov 6
Last Quarter
Nov 13
New
Nov 20
First Quarter

Hourly Weather History & Observations

Time (EDT) Temp. Dew Point Humidity Pressure Visibility Wind Dir Wind Speed Gust Speed Precip Events Conditions
12:15 AM 62.6 °F 53.6 °F 72% 29.67 in 10.0 mi North 11.5 mph - N/A   Clear
12:55 AM 62.6 °F 53.6 °F 72% 29.67 in 10.0 mi North 11.5 mph 18.4 mph N/A   Clear
1:15 AM 62.6 °F 53.6 °F 72% 29.67 in 10.0 mi North 12.7 mph 18.4 mph N/A   Clear
1:35 AM 62.6 °F 53.6 °F 72% 29.66 in 10.0 mi North 10.4 mph 16.1 mph N/A   Clear
1:55 AM 62.6 °F 53.6 °F 72% 29.66 in 10.0 mi North 10.4 mph - N/A   Clear
2:15 AM 62.6 °F 53.6 °F 72% 29.66 in 10.0 mi North 11.5 mph 16.1 mph N/A   Clear
2:35 AM 62.6 °F 53.6 °F 72% 29.65 in 10.0 mi North 12.7 mph - N/A   Clear
2:55 AM 62.6 °F 51.8 °F 68% 29.65 in 10.0 mi North 10.4 mph 18.4 mph N/A   Clear
3:15 AM 62.6 °F 51.8 °F 68% 29.65 in 10.0 mi North 10.4 mph 18.4 mph N/A   Clear
3:35 AM 62.6 °F 51.8 °F 68% 29.65 in 10.0 mi North 9.2 mph - N/A   Clear
3:55 AM 62.6 °F 51.8 °F 68% 29.64 in 10.0 mi North 10.4 mph - N/A   Clear
4:15 AM 62.6 °F 50.0 °F 63% 29.64 in 10.0 mi North 11.5 mph 16.1 mph N/A   Clear
4:35 AM 62.6 °F 50.0 °F 63% 29.64 in 10.0 mi North 12.7 mph 17.3 mph N/A   Clear
4:55 AM 62.6 °F 50.0 °F 63% 29.64 in 10.0 mi North 11.5 mph 19.6 mph N/A   Clear
5:15 AM 62.6 °F 50.0 °F 63% 29.64 in 10.0 mi North 13.8 mph - N/A   Clear
5:35 AM 62.6 °F 50.0 °F 63% 29.64 in 10.0 mi North 11.5 mph 19.6 mph N/A   Clear
5:55 AM 62.6 °F 50.0 °F 63% 29.64 in 10.0 mi North 9.2 mph - N/A   Clear
6:15 AM 60.8 °F 50.0 °F 68% 29.64 in 10.0 mi North 12.7 mph 17.3 mph N/A   Clear
6:35 AM 60.8 °F 50.0 °F 68% 29.64 in 10.0 mi North 11.5 mph 16.1 mph N/A   Clear
6:55 AM 60.8 °F 50.0 °F 68% 29.65 in 10.0 mi North 9.2 mph - N/A   Clear
7:15 AM 60.8 °F 50.0 °F 68% 29.65 in 10.0 mi North 10.4 mph - N/A   Clear
7:35 AM 59.0 °F 50.0 °F 72% 29.65 in 10.0 mi North 8.1 mph - N/A   Clear
7:55 AM 59.0 °F 50.0 °F 72% 29.65 in 10.0 mi NNW 5.8 mph - N/A   Clear
8:15 AM 59.0 °F 50.0 °F 72% 29.66 in 10.0 mi NNW 9.2 mph - N/A   Clear
8:35 AM 59.0 °F 50.0 °F 72% 29.67 in 10.0 mi NNW 8.1 mph - N/A   Clear
8:55 AM 59.0 °F 50.0 °F 72% 29.66 in 10.0 mi North 10.4 mph - N/A   Clear
9:15 AM 59.0 °F 50.0 °F 72% 29.66 in 10.0 mi North 11.5 mph - N/A   Clear
9:35 AM 60.8 °F 50.0 °F 68% 29.66 in 10.0 mi North 10.4 mph - N/A   Clear
9:55 AM 60.8 °F 50.0 °F 68% 29.66 in 10.0 mi North 11.5 mph 18.4 mph N/A   Clear
10:15 AM 62.6 °F 50.0 °F 63% 29.67 in 10.0 mi North 11.5 mph 20.7 mph N/A   Clear
10:35 AM 62.6 °F 50.0 °F 63% 29.67 in 10.0 mi North 12.7 mph - N/A   Clear
11:15 AM 64.4 °F 50.0 °F 59% 29.66 in 10.0 mi North 10.4 mph 17.3 mph N/A   Clear
11:35 AM 66.2 °F 50.0 °F 56% 29.66 in 10.0 mi North 11.5 mph 17.3 mph N/A   Clear
11:55 AM 66.2 °F 50.0 °F 56% 29.65 in 10.0 mi North 12.7 mph 24.2 mph N/A   Clear
12:15 PM 66.2 °F 50.0 °F 56% 29.65 in 10.0 mi North 10.4 mph - N/A   Clear
12:35 PM 68.0 °F 50.0 °F 52% 29.64 in 10.0 mi North 12.7 mph 18.4 mph N/A   Clear
12:55 PM 68.0 °F 50.0 °F 52% 29.64 in 10.0 mi North 15.0 mph 18.4 mph N/A   Clear
1:15 PM 68.0 °F 50.0 °F 52% 29.63 in 10.0 mi North 12.7 mph 17.3 mph N/A   Clear
1:35 PM 68.0 °F 50.0 °F 52% 29.62 in 10.0 mi North 9.2 mph - N/A   Clear
1:55 PM 68.0 °F 50.0 °F 52% 29.62 in 10.0 mi North 12.7 mph - N/A   Clear
2:15 PM 68.0 °F 50.0 °F 52% 29.61 in 10.0 mi North 10.4 mph 16.1 mph N/A   Clear
2:35 PM 69.8 °F 50.0 °F 49% 29.61 in 10.0 mi North 13.8 mph - N/A   Clear
2:55 PM 68.0 °F 50.0 °F 52% 29.60 in 10.0 mi North 10.4 mph - N/A   Clear
3:15 PM 71.6 °F 50.0 °F 46% 29.60 in 10.0 mi North 13.8 mph - N/A   Clear
3:35 PM 69.8 °F 50.0 °F 49% 29.60 in 10.0 mi North 11.5 mph 20.7 mph N/A   Clear
3:55 PM 71.6 °F 50.0 °F 46% 29.60 in 10.0 mi NNW 9.2 mph 17.3 mph N/A   Clear
4:15 PM 69.8 °F 50.0 °F 49% 29.60 in 10.0 mi NNW 12.7 mph - N/A   Clear
4:35 PM 69.8 °F 50.0 °F 49% 29.60 in 10.0 mi NNW 12.7 mph 20.7 mph N/A   Clear
4:55 PM 69.8 °F 50.0 °F 49% 29.60 in 10.0 mi NNW 11.5 mph - N/A   Clear
5:15 PM 69.8 °F 50.0 °F 49% 29.60 in 10.0 mi NNW 9.2 mph - N/A   Clear
5:35 PM 68.0 °F 50.0 °F 52% 29.61 in 10.0 mi NNW 11.5 mph - N/A   Clear
5:55 PM 68.0 °F 50.0 °F 52% 29.61 in 10.0 mi NNW 9.2 mph - N/A   Clear
6:15 PM 66.2 °F 50.0 °F 56% 29.61 in 10.0 mi NNW 6.9 mph - N/A   Clear
6:35 PM 66.2 °F 50.0 °F 56% 29.61 in 10.0 mi North 8.1 mph - N/A   Clear
6:55 PM 64.4 °F 50.0 °F 59% 29.61 in 10.0 mi NNW 4.6 mph - N/A   Clear
7:15 PM 62.6 °F 50.0 °F 63% 29.61 in 10.0 mi Calm Calm - N/A   Clear
7:35 PM 62.6 °F 50.0 °F 63% 29.61 in 10.0 mi Calm Calm - N/A   Clear
7:55 PM 59.0 °F 50.0 °F 72% 29.61 in 10.0 mi NW 3.5 mph - N/A   Clear
8:15 PM 59.0 °F 50.0 °F 72% 29.61 in 10.0 mi Calm Calm - N/A   Clear
8:35 PM 57.2 °F 50.0 °F 77% 29.61 in 10.0 mi NW 3.5 mph - N/A   Clear
8:55 PM 59.0 °F 50.0 °F 72% 29.63 in 10.0 mi NW 6.9 mph - N/A   Clear
9:15 PM 59.0 °F 50.0 °F 72% 29.63 in 10.0 mi NW 8.1 mph - N/A   Clear
9:35 PM 60.8 °F 48.2 °F 63% 29.64 in 10.0 mi NNW 10.4 mph 18.4 mph N/A   Clear
9:55 PM 59.0 °F 48.2 °F 67% 29.64 in 10.0 mi NNW 8.1 mph - N/A   Partly Cloudy
10:15 PM 59.0 °F 46.4 °F 63% 29.65 in 10.0 mi NNW 8.1 mph - N/A   Scattered Clouds
10:35 PM 59.0 °F 46.4 °F 63% 29.65 in 10.0 mi NW 9.2 mph - N/A   Mostly Cloudy
10:55 PM 59.0 °F 48.2 °F 67% 29.65 in 10.0 mi NW 10.4 mph - N/A   Overcast
11:15 PM 59.0 °F 48.2 °F 67% 29.65 in 10.0 mi NW 9.2 mph - N/A   Overcast
11:35 PM 57.2 °F 46.4 °F 67% 29.65 in 10.0 mi NW 8.1 mph - N/A   Overcast
11:55 PM 57.2 °F 46.4 °F 67% 29.66 in 10.0 mi NW 6.9 mph - N/A   Overcast